Time;durP1;ratioP1;P1;durP2;ratioP2;P2;SDS_P1;SDS_P2;PMS_P1;PMS_P2;Temp;Humidity;BMP_temperature;BMP_pressure;BME280_temperature;BME280_humidity;BME280_pressure;Samples;Min_cycle;Max_cycle;Signal;HPM_P1;HPM_P2
2022/09/17 00:00:13;;;;;;;11.68;6.05;;;16.80;55.70;;;;;;7372811;19;20602;-82
2022/09/17 00:02:44;;;;;;;13.50;5.75;;;16.70;55.80;;;;;;7375360;19;20023;-82
2022/09/17 00:05:13;;;;;;;11.48;5.85;;;16.60;55.80;;;;;;7396808;19;20592;-83
2022/09/17 00:07:42;;;;;;;9.85;5.65;;;16.60;56.10;;;;;;7372728;19;20040;-83
2022/09/17 00:10:11;;;;;;;16.52;5.60;;;16.50;56.20;;;;;;7379079;19;20030;-82
2022/09/17 00:12:40;;;;;;;12.18;6.32;;;16.50;56.30;;;;;;7381515;19;20018;-82
2022/09/17 00:15:12;;;;;;;12.00;5.53;;;16.50;56.30;;;;;;7386442;19;20026;-83
2022/09/17 00:17:42;;;;;;;9.27;5.03;;;16.50;56.20;;;;;;7383433;19;20019;-82
2022/09/17 00:20:12;;;;;;;7.03;4.53;;;16.50;56.20;;;;;;7409273;19;20018;-83
2022/09/17 00:22:41;;;;;;;12.57;5.82;;;16.50;56.20;;;;;;7386988;19;20673;-83
2022/09/17 00:25:10;;;;;;;9.05;4.80;;;16.50;56.10;;;;;;7389544;19;20022;-83
2022/09/17 00:27:39;;;;;;;9.10;4.72;;;16.50;56.10;;;;;;7390568;19;20010;-83
2022/09/17 00:30:09;;;;;;;8.57;4.97;;;16.50;56.30;;;;;;7385369;19;20018;-83
2022/09/17 00:32:41;;;;;;;13.63;4.82;;;16.40;56.90;;;;;;7384461;19;20047;-83
2022/09/17 00:35:09;;;;;;;;;;;16.40;56.20;;;;;;7402700;19;20015;-83
2022/09/17 00:37:38;;;;;;;10.00;4.85;;;16.40;56.30;;;;;;7380851;19;19958;-83
2022/09/17 00:40:08;;;;;;;9.93;5.00;;;16.30;56.30;;;;;;7380097;19;20675;-83
2022/09/17 00:42:37;;;;;;;9.40;4.90;;;16.30;56.20;;;;;;7381384;19;20010;-83
2022/09/17 00:45:07;;;;;;;11.23;5.55;;;16.20;56.30;;;;;;7380009;19;20015;-83
2022/09/17 00:47:40;;;;;;;13.98;4.90;;;16.20;56.10;;;;;;7377274;19;20014;-82
2022/09/17 00:50:14;;;;;;;8.13;4.50;;;16.20;56.30;;;;;;7397036;19;20014;-83
2022/09/17 00:52:49;;;;;;;7.22;4.50;;;16.20;56.50;;;;;;7382667;19;20018;-82
2022/09/17 00:55:23;;;;;;;9.00;5.03;;;16.20;56.40;;;;;;7391455;19;20015;-83
2022/09/17 00:57:55;;;;;;;10.88;4.60;;;16.20;56.50;;;;;;7387725;19;20010;-83
2022/09/17 01:00:24;;;;;;;10.05;4.97;;;16.20;56.50;;;;;;7380655;19;20014;-83
2022/09/17 01:02:54;;;;;;;9.98;4.57;;;16.20;56.60;;;;;;7380479;19;20023;-83
2022/09/17 01:05:33;;;;;;;6.50;4.13;;;16.20;56.60;;;;;;7399248;19;20492;-82
2022/09/17 01:08:10;;;;;;;7.57;4.20;;;16.10;56.60;;;;;;7381565;19;20033;-82
2022/09/17 01:11:03;;;;;;;8.57;4.20;;;16.10;56.70;;;;;;7383730;19;20052;-83
2022/09/17 01:13:39;;;;;;;7.30;4.00;;;16.20;56.70;;;;;;7379039;19;20060;-82
2022/09/17 01:16:17;;;;;;;6.15;4.45;;;16.10;56.50;;;;;;7377535;19;20018;-82
2022/09/17 01:18:59;;;;;;;5.82;3.53;;;16.10;57.20;;;;;;7377460;19;20078;-83
2022/09/17 01:21:53;;;;;;;7.45;3.78;;;16.00;56.60;;;;;;7377848;19;20010;-82
2022/09/17 01:24:51;;;;;;;7.20;3.47;;;16.00;56.70;;;;;;7377398;19;20094;-82
2022/09/17 01:27:58;;;;;;;6.03;3.58;;;16.00;56.60;;;;;;7376833;19;20003;-82
2022/09/17 01:30:57;;;;;;;10.63;4.22;;;16.00;56.50;;;;;;7373687;19;20031;-82
2022/09/17 01:33:32;;;;;;;10.75;4.55;;;16.00;56.50;;;;;;7374594;19;20018;-82
2022/09/17 01:36:12;;;;;;;15.57;4.65;;;16.00;56.60;;;;;;7375602;19;20078;-82
2022/09/17 01:38:48;;;;;;;8.07;4.25;;;16.00;56.70;;;;;;7374957;19;20014;-82
2022/09/17 01:41:29;;;;;;;8.60;4.57;;;16.00;56.80;;;;;;7399389;19;20011;-81
2022/09/17 01:44:03;;;;;;;9.10;4.43;;;16.00;56.80;;;;;;7376889;19;20015;-82
2022/09/17 01:46:42;;;;;;;8.27;3.72;;;16.00;56.80;;;;;;7382008;19;20513;-82
2022/09/17 01:49:14;;;;;;;7.72;4.10;;;15.90;56.70;;;;;;7374914;19;20077;-81
2022/09/17 01:51:45;;;;;;;7.75;4.30;;;15.90;56.90;;;;;;7372772;19;20055;-83
2022/09/17 01:54:20;;;;;;;6.35;3.67;;;15.90;57.00;;;;;;7373821;19;20453;-82
2022/09/17 01:56:53;;;;;;;8.68;4.00;;;15.80;57.60;;;;;;7377634;19;20043;-84
2022/09/17 01:59:28;;;;;;;8.85;4.03;;;15.90;57.00;;;;;;7400302;19;20010;-83
2022/09/17 02:02:05;;;;;;;11.20;4.03;;;15.90;56.90;;;;;;7375705;19;20018;-83
2022/09/17 02:04:38;;;;;;;11.27;3.70;;;15.80;56.60;;;;;;7375136;19;20018;-83
2022/09/17 02:07:14;;;;;;;8.65;3.42;;;15.80;56.80;;;;;;7376297;19;20015;-83
2022/09/17 02:09:48;;;;;;;5.75;3.17;;;15.80;56.90;;;;;;7374557;19;20018;-82
2022/09/17 02:12:20;;;;;;;7.03;3.20;;;15.70;56.80;;;;;;7376410;19;20089;-82
2022/09/17 02:14:52;;;;;;;7.00;3.65;;;15.70;56.80;;;;;;7379598;19;20018;-82
2022/09/17 02:17:33;;;;;;;5.80;3.28;;;15.60;56.90;;;;;;7397677;19;20109;-82
2022/09/17 02:20:03;;;;;;;6.38;2.92;;;15.60;57.40;;;;;;7377941;19;20653;-82
2022/09/17 02:22:38;;;;;;;4.70;2.60;;;15.60;57.40;;;;;;7383562;19;20006;-82
2022/09/17 02:25:16;;;;;;;7.43;3.13;;;15.50;57.50;;;;;;7383750;19;20014;-82
2022/09/17 02:27:52;;;;;;;7.53;2.78;;;15.50;57.30;;;;;;7385672;19;20046;-83
2022/09/17 02:30:21;;;;;;;5.85;3.17;;;15.50;57.30;;;;;;7380715;19;20031;-80
2022/09/17 02:32:53;;;;;;;7.65;2.80;;;15.50;57.40;;;;;;7377811;19;20018;-80
2022/09/17 02:35:22;;;;;;;11.20;2.90;;;15.50;57.60;;;;;;7409430;19;20025;-83
2022/09/17 02:37:52;;;;;;;6.05;2.88;;;15.60;57.80;;;;;;7400531;19;20043;-82
2022/09/17 02:40:23;;;;;;;4.85;2.50;;;15.50;57.70;;;;;;7397996;19;20035;-81
2022/09/17 02:43:07;;;;;;;6.55;2.58;;;15.50;57.60;;;;;;7391352;19;20019;-81
2022/09/17 02:45:47;;;;;;;5.88;2.92;;;15.50;57.70;;;;;;7387429;19;20022;-82
2022/09/17 02:48:30;;;;;;;4.95;2.58;;;15.50;57.40;;;;;;7384541;19;20011;-82
2022/09/17 02:51:13;;;;;;;5.68;2.70;;;15.50;57.40;;;;;;7378443;19;20082;-82
2022/09/17 02:53:51;;;;;;;5.53;2.78;;;15.50;57.20;;;;;;7379087;19;20136;-82
2022/09/17 02:56:25;;;;;;;3.67;2.33;;;15.50;57.00;;;;;;7403516;19;20042;-82
2022/09/17 02:59:02;;;;;;;4.05;2.47;;;15.40;56.90;;;;;;7385236;19;20418;-83
2022/09/17 03:01:36;;;;;;;7.00;2.75;;;15.50;57.00;;;;;;7393016;19;20022;-82
2022/09/17 03:04:12;;;;;;;4.13;2.03;;;15.50;57.20;;;;;;7389038;19;20018;-82
2022/09/17 03:06:42;;;;;;;7.30;2.50;;;15.50;57.10;;;;;;7386700;19;20018;-82
2022/09/17 03:09:11;;;;;;;5.78;2.30;;;15.40;57.10;;;;;;7385242;19;20014;-82
2022/09/17 03:11:40;;;;;;;5.47;2.30;;;15.40;57.10;;;;;;7384441;19;20014;-82
2022/09/17 03:14:09;;;;;;;3.55;2.20;;;15.40;57.10;;;;;;7406196;19;20018;-82
2022/09/17 03:16:38;;;;;;;6.30;2.13;;;15.40;57.30;;;;;;7383113;19;20027;-81
2022/09/17 03:19:09;;;;;;;9.38;2.10;;;15.30;57.40;;;;;;7381129;19;20018;-81
2022/09/17 03:21:38;;;;;;;3.58;2.05;;;15.30;57.40;;;;;;7379485;19;20027;-81
2022/09/17 03:24:07;;;;;;;2.70;1.92;;;15.30;57.60;;;;;;7377687;19;20018;-81
2022/09/17 03:26:36;;;;;;;4.93;2.10;;;15.30;57.70;;;;;;7376645;19;20486;-81
2022/09/17 03:29:05;;;;;;;4.32;1.90;;;15.30;57.70;;;;;;7398466;19;20123;-81
2022/09/17 03:31:34;;;;;;;4.00;2.08;;;15.30;57.60;;;;;;7374233;19;20038;-81
2022/09/17 03:34:03;;;;;;;9.30;2.17;;;15.30;57.40;;;;;;7372142;19;20062;-81
2022/09/17 03:36:34;;;;;;;5.60;1.80;;;15.20;57.30;;;;;;7373252;19;20014;-81
2022/09/17 03:39:04;;;;;;;5.95;1.90;;;15.20;57.20;;;;;;7372337;19;20021;-81
2022/09/17 03:41:33;;;;;;;3.03;1.70;;;15.20;57.30;;;;;;7372723;19;20023;-81
2022/09/17 03:44:01;;;;;;;2.30;1.58;;;15.20;57.50;;;;;;7399968;19;20014;-82
2022/09/17 03:46:30;;;;;;;6.05;2.00;;;15.20;57.50;;;;;;7376498;19;20014;-81
2022/09/17 03:48:59;;;;;;;7.15;1.88;;;15.20;57.40;;;;;;7384021;19;20010;-81
2022/09/17 03:51:28;;;;;;;4.97;1.50;;;15.20;57.40;;;;;;7379623;19;20014;-80
2022/09/17 03:53:59;;;;;;;4.80;1.48;;;15.20;57.60;;;;;;7378954;19;20058;-81
2022/09/17 03:56:28;;;;;;;;;;;15.10;57.60;;;;;;7382630;19;20022;-80
2022/09/17 03:59:00;;;;;;;3.33;1.38;;;15.10;57.60;;;;;;7404968;19;19934;-81
2022/09/17 04:01:30;;;;;;;5.88;1.40;;;15.00;57.60;;;;;;7380656;19;20560;-81
2022/09/17 04:03:59;;;;;;;4.45;1.67;;;15.00;57.80;;;;;;7382053;19;20022;-81
2022/09/17 04:06:28;;;;;;;6.82;1.55;;;14.90;58.00;;;;;;7378346;19;20028;-81
2022/09/17 04:08:59;;;;;;;4.80;1.65;;;14.90;58.40;;;;;;7377124;19;20014;-81
2022/09/17 04:11:28;;;;;;;5.07;2.15;;;14.80;58.70;;;;;;7376607;19;20022;-81
2022/09/17 04:13:57;;;;;;;6.78;1.40;;;14.70;58.80;;;;;;7401994;19;20025;-81
2022/09/17 04:16:26;;;;;;;9.13;1.50;;;14.70;58.90;;;;;;7378659;19;20042;-80
2022/09/17 04:18:55;;;;;;;7.25;1.60;;;14.70;59.00;;;;;;7381286;19;20023;-81
2022/09/17 04:21:24;;;;;;;7.55;1.83;;;14.60;59.20;;;;;;7383443;19;20498;-80
2022/09/17 04:23:53;;;;;;;2.75;1.40;;;14.50;59.30;;;;;;7382384;19;20022;-80
2022/09/17 04:26:24;;;;;;;3.17;1.50;;;14.40;59.60;;;;;;7399260;19;20030;-80
2022/09/17 04:28:53;;;;;;;;;;;14.40;59.90;;;;;;7381164;19;20042;-80
2022/09/17 04:31:23;;;;;;;6.13;1.35;;;14.40;60.30;;;;;;7380821;19;19926;-80
2022/09/17 04:33:52;;;;;;;4.70;1.48;;;14.30;60.30;;;;;;7382230;19;20089;-80
2022/09/17 04:36:21;;;;;;;8.07;1.63;;;14.40;60.40;;;;;;7380775;19;20006;-81
2022/09/17 04:38:50;;;;;;;11.02;1.92;;;14.40;60.20;;;;;;7384208;19;20014;-81
2022/09/17 04:41:19;;;;;;;2.58;1.20;;;14.40;60.50;;;;;;7400693;19;20481;-81
2022/09/17 04:43:50;;;;;;;4.90;1.60;;;14.40;60.30;;;;;;7377850;19;20321;-81
2022/09/17 04:46:19;;;;;;;3.85;1.50;;;14.40;60.30;;;;;;7379005;19;20019;-82
2022/09/17 04:48:48;;;;;;;7.50;1.60;;;14.40;60.30;;;;;;7381345;19;20035;-81
2022/09/17 04:51:17;;;;;;;3.67;1.52;;;14.40;60.40;;;;;;7379157;19;20059;-81
2022/09/17 04:53:46;;;;;;;6.80;1.95;;;14.40;60.40;;;;;;7379763;19;20031;-80
2022/09/17 04:56:15;;;;;;;6.97;1.80;;;14.40;60.50;;;;;;7400320;19;20025;-81
2022/09/17 04:58:44;;;;;;;3.58;1.63;;;14.40;60.60;;;;;;7375336;19;20027;-81
2022/09/17 05:01:17;;;;;;;6.45;1.48;;;14.40;60.50;;;;;;7380658;19;20023;-81
2022/09/17 05:03:46;;;;;;;5.15;1.83;;;14.40;60.80;;;;;;7380179;19;20113;-81
2022/09/17 05:06:15;;;;;;;4.57;1.63;;;14.30;60.90;;;;;;7377406;19;20022;-81
2022/09/17 05:08:44;;;;;;;8.05;1.83;;;14.30;60.90;;;;;;7376086;19;20019;-80
2022/09/17 05:11:13;;;;;;;3.35;1.50;;;14.30;60.40;;;;;;7399659;19;20018;-81
2022/09/17 05:13:41;;;;;;;6.57;2.00;;;14.30;60.20;;;;;;7378860;19;20035;-80
2022/09/17 05:16:10;;;;;;;4.75;1.50;;;14.30;60.20;;;;;;7380932;19;20055;-80
2022/09/17 05:18:42;;;;;;;5.05;1.67;;;14.30;60.50;;;;;;7378083;19;20018;-79
2022/09/17 05:21:11;;;;;;;5.32;1.85;;;14.20;60.60;;;;;;7376738;19;20025;-79
2022/09/17 05:23:40;;;;;;;4.15;1.65;;;14.20;60.90;;;;;;7375346;19;20426;-79
2022/09/17 05:26:09;;;;;;;5.40;1.88;;;14.20;60.90;;;;;;7396520;19;20118;-80
2022/09/17 05:28:38;;;;;;;5.93;1.67;;;14.20;61.10;;;;;;7378829;19;20018;-80
2022/09/17 05:31:07;;;;;;;6.40;1.77;;;14.20;61.10;;;;;;7378637;19;20588;-80
2022/09/17 05:33:36;;;;;;;4.22;1.90;;;14.20;61.30;;;;;;7377894;19;20511;-80
2022/09/17 05:36:08;;;;;;;7.32;1.63;;;14.20;61.50;;;;;;7378404;19;20023;-80
2022/09/17 05:38:37;;;;;;;2.85;1.58;;;14.10;61.70;;;;;;7378140;19;20315;-80
2022/09/17 05:41:08;;;;;;;7.13;1.88;;;14.20;61.90;;;;;;7394352;19;20018;-80
2022/09/17 05:43:37;;;;;;;4.25;1.58;;;14.20;61.60;;;;;;7375545;19;20159;-81
2022/09/17 05:46:07;;;;;;;2.72;1.70;;;14.30;61.30;;;;;;7379862;19;20010;-80
2022/09/17 05:48:36;;;;;;;5.40;1.50;;;14.30;61.10;;;;;;7388174;19;20030;-80
2022/09/17 05:51:07;;;;;;;4.00;1.80;;;14.40;61.00;;;;;;7388275;19;20022;-80
2022/09/17 05:53:36;;;;;;;;;;;14.40;60.90;;;;;;7383914;19;20014;-80
2022/09/17 05:56:05;;;;;;;10.00;2.00;;;14.40;60.90;;;;;;7408266;19;19942;-80
2022/09/17 05:58:34;;;;;;;8.15;1.75;;;14.50;60.80;;;;;;7384538;19;20023;-80
2022/09/17 06:01:03;;;;;;;3.88;1.80;;;14.50;60.70;;;;;;7387844;19;20014;-80
2022/09/17 06:03:32;;;;;;;10.30;2.10;;;14.50;60.70;;;;;;7384697;19;20022;-81
2022/09/17 06:06:02;;;;;;;5.88;1.70;;;14.40;60.80;;;;;;7382320;19;20007;-82
2022/09/17 06:08:36;;;;;;;5.82;1.70;;;14.40;61.00;;;;;;7381331;19;20019;-80
2022/09/17 06:11:07;;;;;;;8.45;2.10;;;14.50;60.90;;;;;;7395768;19;20015;-80
2022/09/17 06:13:36;;;;;;;3.20;1.98;;;14.50;60.80;;;;;;7378060;19;20018;-81
2022/09/17 06:16:06;;;;;;;5.50;2.10;;;14.50;60.80;;;;;;7376226;19;20023;-81
2022/09/17 06:18:35;;;;;;;14.18;2.05;;;14.50;60.90;;;;;;7375980;19;20018;-81
2022/09/17 06:21:06;;;;;;;3.17;1.67;;;14.50;61.00;;;;;;7378344;19;20054;-81
2022/09/17 06:23:38;;;;;;;3.45;1.65;;;14.60;61.30;;;;;;7384132;19;20027;-80
2022/09/17 06:26:07;;;;;;;;;;;14.60;61.30;;;;;;7421584;19;20042;-80
2022/09/17 06:28:36;;;;;;;6.50;1.80;;;14.70;61.50;;;;;;7401668;19;19919;-80
2022/09/17 06:31:07;;;;;;;4.85;1.80;;;14.70;61.50;;;;;;7385971;19;20026;-81
2022/09/17 06:33:37;;;;;;;9.30;1.80;;;14.70;61.60;;;;;;7379446;19;20014;-82
2022/09/17 06:36:09;;;;;;;6.22;1.58;;;14.70;61.80;;;;;;7379329;19;20476;-83
2022/09/17 06:38:41;;;;;;;7.53;1.45;;;14.70;61.90;;;;;;7381279;19;20035;-82
2022/09/17 06:41:11;;;;;;;6.30;1.73;;;14.70;62.10;;;;;;7401226;19;20014;-82
2022/09/17 06:43:40;;;;;;;3.40;1.30;;;14.80;61.90;;;;;;7375448;19;20010;-82
2022/09/17 06:46:09;;;;;;;5.13;1.33;;;14.80;62.00;;;;;;7373144;19;20057;-82
2022/09/17 06:48:39;;;;;;;6.00;1.45;;;14.70;61.90;;;;;;7375610;19;20015;-82
2022/09/17 06:51:10;;;;;;;6.97;1.70;;;14.60;62.10;;;;;;7370691;19;20010;-81
2022/09/17 06:53:41;;;;;;;5.72;1.65;;;14.70;62.20;;;;;;7375081;19;20022;-82
2022/09/17 06:56:11;;;;;;;4.47;1.35;;;14.70;62.20;;;;;;7396123;19;20031;-83
2022/09/17 06:58:40;;;;;;;10.77;1.70;;;14.80;62.10;;;;;;7377286;19;20043;-82
2022/09/17 07:01:10;;;;;;;8.52;1.25;;;14.60;62.20;;;;;;7377859;19;20030;-82
2022/09/17 07:03:41;;;;;;;10.48;1.70;;;14.60;62.20;;;;;;7378228;19;20014;-82
2022/09/17 07:06:11;;;;;;;10.55;1.70;;;14.60;62.10;;;;;;7377692;19;20018;-82
2022/09/17 07:08:43;;;;;;;7.28;1.40;;;14.60;62.10;;;;;;7373282;19;20869;-82
2022/09/17 07:11:12;;;;;;;6.60;1.23;;;14.60;61.80;;;;;;7394837;19;20025;-82
2022/09/17 07:13:41;;;;;;;3.85;1.23;;;14.50;61.10;;;;;;7375558;19;20042;-82
2022/09/17 07:16:11;;;;;;;5.40;1.27;;;14.60;60.90;;;;;;7371320;19;20011;-83
2022/09/17 07:18:40;;;;;;;8.95;1.40;;;14.30;61.00;;;;;;7371928;19;20028;-83
2022/09/17 07:21:11;;;;;;;6.35;1.52;;;14.30;61.30;;;;;;7376517;19;20010;-82
2022/09/17 07:23:43;;;;;;;6.22;1.33;;;14.40;61.60;;;;;;7382396;19;20015;-82
2022/09/17 07:26:15;;;;;;;10.95;1.80;;;14.40;60.90;;;;;;7407897;19;20006;-83
2022/09/17 07:28:45;;;;;;;7.28;1.20;;;14.50;60.80;;;;;;7385526;19;20043;-82
2022/09/17 07:31:15;;;;;;;7.20;1.38;;;14.50;60.30;;;;;;7383508;19;20489;-82
2022/09/17 07:33:45;;;;;;;5.03;1.23;;;14.70;59.80;;;;;;7385870;19;20018;-82
2022/09/17 07:36:16;;;;;;;13.52;1.27;;;14.70;59.50;;;;;;7381670;19;20042;-80
2022/09/17 07:38:48;;;;;;;4.05;1.00;;;14.70;59.00;;;;;;7382040;19;20095;-81
2022/09/17 07:41:18;;;;;;;7.00;1.63;;;15.00;59.20;;;;;;7404818;19;20029;-81
2022/09/17 07:43:47;;;;;;;4.88;1.08;;;15.10;58.50;;;;;;7381941;19;20015;-79
2022/09/17 07:46:19;;;;;;;5.30;1.20;;;15.30;58.30;;;;;;7379961;19;20042;-80
2022/09/17 07:48:49;;;;;;;4.88;1.20;;;15.30;57.50;;;;;;7378541;19;20022;-80
2022/09/17 07:51:19;;;;;;;6.75;1.30;;;15.20;57.20;;;;;;7382382;19;20015;-81
2022/09/17 07:53:53;;;;;;;7.13;1.15;;;15.30;57.50;;;;;;7386498;19;20012;-81
2022/09/17 07:56:22;;;;;;;3.95;0.93;;;15.40;57.30;;;;;;7410640;19;20015;-80
2022/09/17 07:58:51;;;;;;;6.30;1.20;;;15.40;57.00;;;;;;7383489;19;20046;-81
2022/09/17 08:01:21;;;;;;;7.63;1.10;;;15.30;57.00;;;;;;7380383;19;20059;-80
2022/09/17 08:03:52;;;;;;;7.28;1.45;;;15.50;57.00;;;;;;7383975;19;20047;-80
2022/09/17 08:06:24;;;;;;;8.73;1.00;;;15.50;56.80;;;;;;7384917;19;20021;-81
2022/09/17 08:08:56;;;;;;;6.25;1.20;;;15.40;57.10;;;;;;7381564;19;20026;-81
2022/09/17 08:11:27;;;;;;;15.55;1.58;;;15.40;57.20;;;;;;7387188;19;20060;-81
2022/09/17 08:13:57;;;;;;;9.00;1.30;;;15.60;57.10;;;;;;7406618;19;20021;-81
2022/09/17 08:16:26;;;;;;;9.50;1.40;;;15.80;57.10;;;;;;7382033;19;20038;-81
2022/09/17 08:18:57;;;;;;;8.88;1.23;;;15.90;56.60;;;;;;7381121;19;20014;-82
2022/09/17 08:21:26;;;;;;;8.35;1.35;;;16.00;56.40;;;;;;7383821;19;20038;-81
2022/09/17 08:23:58;;;;;;;8.98;1.30;;;16.00;56.30;;;;;;7384121;19;20018;-81
2022/09/17 08:26:27;;;;;;;9.00;1.45;;;16.00;56.30;;;;;;7387644;19;20432;-81
2022/09/17 08:28:57;;;;;;;18.48;1.70;;;15.90;56.80;;;;;;7402598;19;20038;-82
2022/09/17 08:31:28;;;;;;;14.02;1.60;;;16.00;56.70;;;;;;7385217;19;20029;-81
2022/09/17 08:33:58;;;;;;;;;;;15.90;56.30;;;;;;7382840;19;20017;-81
2022/09/17 08:36:28;;;;;;;8.07;1.45;;;16.10;56.50;;;;;;7382038;19;19931;-80
2022/09/17 08:39:12;;;;;;;7.40;1.13;;;16.00;56.90;;;;;;7381400;19;20077;-82
2022/09/17 08:42:19;;;;;;;8.13;1.65;;;15.90;55.90;;;;;;7383173;19;20015;-83
2022/09/17 08:45:02;;;;;;;13.23;1.48;;;15.90;56.50;;;;;;7373641;19;20034;-83
2022/09/17 08:50:52;;;;;;;7.30;1.23;;;16.00;56.10;;;;;;7380629;19;20010;-84
2022/09/17 08:53:46;;;;;;;10.50;1.13;;;16.00;55.20;;;;;;7407003;19;20043;-84
2022/09/17 08:56:48;;;;;;;8.70;1.73;;;16.20;55.30;;;;;;7384294;19;20740;-83
2022/09/17 09:02:42;;;;;;;12.15;1.58;;;16.20;55.50;;;;;;7380520;19;20034;-84
2022/09/17 09:05:28;;;;;;;11.52;1.25;;;16.00;55.30;;;;;;7381329;19;20015;-83
2022/09/17 09:08:28;;;;;;;11.40;1.65;;;16.10;55.70;;;;;;7378988;19;20031;-84
2022/09/17 09:11:26;;;;;;;7.18;1.35;;;16.10;55.80;;;;;;7379556;19;20071;-82
2022/09/17 09:14:25;;;;;;;9.20;1.40;;;16.30;55.20;;;;;;7378320;19;20014;-80
2022/09/17 09:17:10;;;;;;;14.13;1.20;;;16.30;55.50;;;;;;7383176;19;20028;-87
2022/09/17 09:20:18;;;;;;;8.52;1.58;;;16.40;55.00;;;;;;7374617;19;20566;-88
2022/09/17 09:22:56;;;;;;;10.32;1.20;;;16.30;54.70;;;;;;7378065;19;20449;-81
2022/09/17 09:25:50;;;;;;;11.20;1.60;;;16.30;54.30;;;;;;7376553;19;20017;-82
2022/09/17 09:29:02;;;;;;;16.83;1.63;;;16.40;54.20;;;;;;7387390;19;20015;-84
2022/09/17 09:35:33;;;;;;;17.13;2.85;;;16.40;55.10;;;;;;7385807;19;20683;-82
2022/09/17 09:38:42;;;;;;;10.13;1.38;;;16.60;55.50;;;;;;7379902;19;20278;-82
2022/09/17 09:44:43;;;;;;;9.25;1.60;;;16.90;53.70;;;;;;7354916;19;20023;-82
2022/09/17 09:47:31;;;;;;;10.43;1.05;;;16.90;53.50;;;;;;7401120;19;20010;-83
2022/09/17 09:50:31;;;;;;;13.43;1.65;;;17.00;51.30;;;;;;7381783;19;20033;-83
2022/09/17 09:53:11;;;;;;;9.98;1.52;;;16.80;50.70;;;;;;7377972;19;20015;-83
2022/09/17 09:56:02;;;;;;;8.88;1.00;;;16.80;51.60;;;;;;7379572;19;20031;-83
2022/09/17 09:58:36;;;;;;;6.72;1.08;;;16.90;52.60;;;;;;7377937;19;20042;-82
2022/09/17 10:01:13;;;;;;;9.40;1.30;;;17.10;51.90;;;;;;7380436;19;20476;-83
2022/09/17 10:03:44;;;;;;;14.07;1.65;;;17.30;51.60;;;;;;7389873;19;20022;-82
2022/09/17 10:06:34;;;;;;;8.15;1.27;;;17.40;51.70;;;;;;7385929;19;20030;-85
2022/09/17 10:19:29;;;;;;;7.93;1.25;;;17.80;49.70;;;;;;7378274;19;20014;-78
2022/09/17 10:22:32;;;;;;;5.47;0.85;;;17.70;48.80;;;;;;7377843;19;20045;-77
2022/09/17 10:25:02;;;;;;;6.53;0.73;;;17.60;49.00;;;;;;7375040;19;20019;-77
2022/09/17 10:27:33;;;;;;;7.03;1.07;;;17.80;49.70;;;;;;7373838;19;20074;-78
2022/09/17 10:30:15;;;;;;;4.82;1.10;;;18.00;49.50;;;;;;7372951;19;20018;-77
2022/09/17 10:32:45;;;;;;;9.20;1.13;;;17.80;48.80;;;;;;7373700;19;19996;-78
2022/09/17 10:35:28;;;;;;;6.65;0.98;;;17.70;48.60;;;;;;7391450;19;20569;-78
2022/09/17 10:38:00;;;;;;;5.70;1.40;;;17.50;48.70;;;;;;7371244;19;20510;-77
2022/09/17 10:40:32;;;;;;;;;;;17.60;49.00;;;;;;7372968;19;20011;-77
2022/09/17 10:43:20;;;;;;;6.40;0.80;;;17.30;49.20;;;;;;7374157;19;19930;-77
2022/09/17 10:45:59;;;;;;;7.70;1.15;;;17.20;49.70;;;;;;7377274;19;20052;-79
2022/09/17 10:48:32;;;;;;;7.18;1.20;;;17.10;50.40;;;;;;7375167;19;20051;-78
2022/09/17 10:51:05;;;;;;;4.53;1.10;;;17.30;50.70;;;;;;7372446;19;20020;-78
2022/09/17 10:53:57;;;;;;;6.68;1.45;;;17.50;50.30;;;;;;7371813;19;20514;-78
2022/09/17 10:56:33;;;;;;;9.35;1.60;;;17.60;49.80;;;;;;7367916;19;20018;-78
2022/09/17 10:59:20;;;;;;;8.93;1.00;;;17.60;49.60;;;;;;7390010;19;20019;-79
2022/09/17 11:02:01;;;;;;;6.80;1.20;;;17.50;48.80;;;;;;7369964;19;20014;-77
2022/09/17 11:04:44;;;;;;;6.35;1.00;;;17.30;48.80;;;;;;7375048;19;20334;-78
2022/09/17 11:07:36;;;;;;;5.30;0.73;;;17.50;49.10;;;;;;7368609;19;20058;-79
2022/09/17 11:10:20;;;;;;;3.50;0.80;;;17.70;48.70;;;;;;7370077;19;20028;-79
2022/09/17 11:13:13;;;;;;;8.48;0.77;;;17.80;48.40;;;;;;7369447;19;20018;-79
2022/09/17 11:16:00;;;;;;;4.95;1.08;;;17.70;48.80;;;;;;7370313;19;20018;-79
2022/09/17 11:18:38;;;;;;;11.75;0.80;;;17.80;49.00;;;;;;7369716;19;20022;-78
2022/09/17 11:21:28;;;;;;;7.75;1.10;;;17.80;48.90;;;;;;7376868;19;20028;-77
2022/09/17 11:24:21;;;;;;;4.18;0.80;;;17.70;48.40;;;;;;7373184;19;20043;-78
2022/09/17 11:27:03;;;;;;;5.07;0.95;;;17.70;47.80;;;;;;7368537;19;20006;-78
2022/09/17 11:29:56;;;;;;;2.08;0.77;;;17.70;46.90;;;;;;7370124;19;20045;-79
2022/09/17 11:32:40;;;;;;;5.55;0.82;;;17.90;48.10;;;;;;7374241;19;20014;-78
2022/09/17 11:35:14;;;;;;;3.95;0.85;;;18.20;46.50;;;;;;7388389;19;20015;-79
2022/09/17 11:37:48;;;;;;;5.45;1.05;;;18.50;47.60;;;;;;7369664;19;20022;-79
2022/09/17 11:40:25;;;;;;;3.90;0.68;;;18.30;44.90;;;;;;7365973;19;20093;-79
2022/09/17 11:43:03;;;;;;;3.63;0.90;;;18.20;45.00;;;;;;7371056;19;20026;-79
2022/09/17 11:45:36;;;;;;;3.33;0.70;;;18.10;45.50;;;;;;7367729;19;20065;-79
2022/09/17 11:48:12;;;;;;;3.47;1.10;;;18.30;46.20;;;;;;7358995;19;20443;-79
2022/09/17 11:50:45;;;;;;;3.47;1.33;;;18.20;45.90;;;;;;7367659;19;20022;-79
2022/09/17 11:53:25;;;;;;;5.15;0.80;;;18.20;45.80;;;;;;7389795;19;20110;-79
2022/09/17 11:55:58;;;;;;;3.35;0.73;;;18.30;45.80;;;;;;7369238;19;20821;-79
2022/09/17 11:58:37;;;;;;;4.70;0.70;;;18.70;45.80;;;;;;7371538;19;20496;-79
2022/09/17 12:01:11;;;;;;;5.90;0.90;;;18.70;45.00;;;;;;7379360;19;20022;-78
2022/09/17 12:03:44;;;;;;;5.38;1.40;;;18.80;45.20;;;;;;7381486;19;20029;-79
2022/09/17 12:06:18;;;;;;;6.05;1.00;;;18.70;44.80;;;;;;7378797;19;20014;-79
2022/09/17 12:08:53;;;;;;;4.97;0.88;;;18.60;45.00;;;;;;7383924;19;21881;-79
2022/09/17 12:11:28;;;;;;;3.88;0.90;;;18.50;44.80;;;;;;7408537;19;20018;-79
2022/09/17 12:14:05;;;;;;;1.90;0.63;;;18.60;44.80;;;;;;7384397;19;20022;-79
2022/09/17 12:16:39;;;;;;;6.68;0.95;;;18.50;44.30;;;;;;7380446;19;20032;-79
2022/09/17 12:19:16;;;;;;;4.53;0.60;;;18.40;43.60;;;;;;7374206;19;20100;-79
2022/09/17 12:21:49;;;;;;;2.75;0.77;;;18.60;44.00;;;;;;7379261;19;20067;-79
2022/09/17 12:24:24;;;;;;;4.22;0.70;;;18.80;43.90;;;;;;7375574;19;20371;-79
2022/09/17 12:27:06;;;;;;;4.88;0.80;;;18.80;44.00;;;;;;7381503;19;20036;-79
2022/09/17 12:30:04;;;;;;;3.13;0.80;;;18.90;43.80;;;;;;7382274;19;20022;-79
2022/09/17 12:32:46;;;;;;;2.88;0.98;;;18.90;43.00;;;;;;7376260;19;20022;-79
2022/09/17 12:35:27;;;;;;;3.42;0.80;;;19.00;43.40;;;;;;7398574;19;20097;-79
2022/09/17 12:38:11;;;;;;;3.47;0.85;;;19.10;43.30;;;;;;7375586;19;20015;-79
2022/09/17 12:40:46;;;;;;;2.10;0.88;;;19.00;43.10;;;;;;7374007;19;20015;-79
2022/09/17 12:43:34;;;;;;;4.35;0.85;;;19.00;43.80;;;;;;7374638;19;20014;-79
2022/09/17 12:46:20;;;;;;;3.65;0.63;;;18.90;44.10;;;;;;7374705;19;20030;-79
2022/09/17 12:49:09;;;;;;;6.25;1.15;;;18.80;45.90;;;;;;7375969;19;20034;-79
2022/09/17 12:51:56;;;;;;;4.95;0.63;;;19.00;46.10;;;;;;7379968;19;20018;-80
2022/09/17 12:54:42;;;;;;;4.80;1.00;;;18.90;46.20;;;;;;7376781;19;20011;-82
2022/09/17 12:57:22;;;;;;;4.10;0.90;;;19.10;46.10;;;;;;7384335;19;20364;-81
2022/09/17 12:59:57;;;;;;;7.15;0.70;;;19.20;45.80;;;;;;7379026;19;20011;-79
2022/09/17 13:02:33;;;;;;;2.58;0.65;;;19.00;45.80;;;;;;7380887;19;20291;-80
2022/09/17 13:05:31;;;;;;;3.13;1.05;;;19.20;45.10;;;;;;7409359;19;20018;-80
2022/09/17 13:08:29;;;;;;;3.22;0.75;;;19.40;44.10;;;;;;7382433;19;20121;-81
2022/09/17 13:11:36;;;;;;;3.45;0.90;;;19.70;44.30;;;;;;7374403;19;20011;-80
2022/09/17 13:14:16;;;;;;;2.38;0.70;;;19.50;43.20;;;;;;7373120;19;20040;-80
2022/09/17 13:16:51;;;;;;;2.08;0.60;;;19.50;43.20;;;;;;7378973;19;20329;-81
2022/09/17 13:19:32;;;;;;;2.78;0.80;;;19.40;40.80;;;;;;7376489;19;20014;-81
2022/09/17 13:22:05;;;;;;;2.47;0.50;;;19.40;41.50;;;;;;7375895;19;20098;-80
2022/09/17 13:24:36;;;;;;;3.13;0.60;;;19.40;41.60;;;;;;7378220;19;20011;-80
2022/09/17 13:27:07;;;;;;;2.65;0.77;;;19.30;41.60;;;;;;7376904;19;20009;-80
2022/09/17 13:30:00;;;;;;;4.45;0.60;;;19.50;41.30;;;;;;7377558;19;20014;-81
2022/09/17 13:32:48;;;;;;;2.38;0.45;;;19.30;41.60;;;;;;7375889;19;20435;-80
2022/09/17 13:35:46;;;;;;;2.97;0.52;;;19.60;41.60;;;;;;7395569;19;20039;-81
2022/09/17 13:38:19;;;;;;;12.63;0.75;;;19.70;41.80;;;;;;7373539;19;20045;-80
2022/09/17 13:40:48;;;;;;;3.78;0.70;;;19.90;42.20;;;;;;7375447;19;20528;-81
2022/09/17 13:43:22;;;;;;;2.58;0.60;;;19.70;42.20;;;;;;7379250;19;20019;-80
2022/09/17 13:46:16;;;;;;;2.70;0.82;;;19.60;42.00;;;;;;7382345;19;20017;-79
2022/09/17 13:48:51;;;;;;;10.35;0.90;;;19.40;43.30;;;;;;7380199;19;20022;-79
2022/09/17 13:51:52;;;;;;;2.60;0.60;;;19.30;43.00;;;;;;7377241;19;20010;-79
2022/09/17 13:54:27;;;;;;;2.85;0.70;;;19.30;42.50;;;;;;7375329;19;20011;-78